Bochem Mumbai — VRHJ8 — position and weather

sailwx.info

Track history (hours):
 
Tides and Currents Weather Stations Pressure Air Temp Water Temp Dewpoint Dewpoint Depression Visibility Wind Speed Wind Dir Waves Ship Positions

Bochem Mumbai

Last reported at 2017-Apr-24 03:03 UTC. Time now 2017-Apr-24 03:36 UTC.
Position N 37°59' E 006°06'.

Length 171 m; draft 10.8 m.

Type: Ship (hazmat cat A). MMSI: 477932400.

Date/timePositionNaut miles runAvg speedWind from/ knotsBaromVisibWave heightAir tempDewpointWater temp
2017-Apr-24 03:03N 37°59' E 006°06'112.3
2017-Apr-24 02:57N 37°59' E 006°07'2312.3
2017-Apr-24 01:05N 38°01' E 006°37'112.5
2017-Apr-24 01:00N 38°01' E 006°38'612.6
2017-Apr-24 00:30N 38°01' E 006°46'612.7
2017-Apr-24 00:00N 38°02' E 006°54'612.7
2017-Apr-23 23:30N 38°01' E 007°02'712.7
2017-Apr-23 22:59N 38°01' E 007°10'612.7
2017-Apr-23 22:30N 38°01' E 007°18'4012.7
2017-Apr-23 19:21N 38°02' E 008°09'412.4
2017-Apr-23 18:59N 38°02' E 008°15'812.5
2017-Apr-23 18:21N 38°03' E 008°24'2412.5
2017-Apr-23 16:27N 38°05' E 008°55'612.3
2017-Apr-23 15:59N 38°05' E 009°02'612.1
2017-Apr-23 15:30N 38°05' E 009°09'1212.0
2017-Apr-23 14:32N 38°05' E 009°24'711.9
2017-Apr-23 13:55N 38°05' E 009°33'511.7
2017-Apr-23 13:27N 38°05' E 009°40'22211.7
2017-Apr-22 18:29N 36°40' E 013°59'611.4
2017-Apr-22 18:00N 36°36' E 014°04'611.2
2017-Apr-22 17:30N 36°33' E 014°10'611.4
2017-Apr-22 16:59N 36°29' E 014°15'511.3
2017-Apr-22 16:30N 36°25' E 014°20'611.3
2017-Apr-22 16:00N 36°21' E 014°25'611.7
2017-Apr-22 15:30N 36°17' E 014°30'611.6
2017-Apr-22 15:00N 36°13' E 014°35'1311.3
2017-Apr-22 13:49N 36°03' E 014°46'410.8
2017-Apr-22 13:29N 35°60' E 014°48'4 7.4
2017-Apr-22 13:00N 35°56' E 014°50'0 0.1
2017-Apr-22 12:08N 35°56' E 014°50'0 0.0
2017-Apr-22 11:44N 35°56' E 014°50'0 0.0
2017-Apr-22 10:26N 35°56' E 014°50'0 0.0
2017-Apr-22 09:56N 35°56' E 014°50'0 0.0
2017-Apr-22 09:23N 35°56' E 014°50'0 0.0
2017-Apr-22 08:56N 35°56' E 014°50'0 0.0
2017-Apr-22 08:26N 35°56' E 014°50'0 0.0
2017-Apr-22 07:59N 35°56' E 014°50'0 0.0
2017-Apr-22 07:08N 35°56' E 014°50'0 0.0
2017-Apr-22 06:50N 35°56' E 014°50'0 0.0
2017-Apr-22 06:29N 35°56' E 014°50'0 0.0
2017-Apr-22 05:56N 35°56' E 014°50'0 0.0
2017-Apr-22 05:20N 35°56' E 014°50'0 0.0
2017-Apr-22 04:59N 35°56' E 014°50'0 0.0
2017-Apr-22 04:26N 35°56' E 014°50'0 0.0
2017-Apr-22 03:59N 35°56' E 014°50'0 0.0
2017-Apr-22 03:29N 35°56' E 014°50'0 0.2
2017-Apr-22 02:59N 35°56' E 014°50'0 0.1
2017-Apr-22 02:29N 35°56' E 014°50'0 0.0
2017-Apr-22 01:14N 35°57' E 014°50'1 4.9
2017-Apr-22 01:00N 35°57' E 014°48'1 1.9
2017-Apr-22 00:30N 35°57' E 014°48'3 5.1
2017-Apr-22 00:00N 35°57' E 014°51'5 9.4
2017-Apr-21 23:30N 35°56' E 014°57'  
2017-Apr-18 18:43N 31°26' E 032°24'311.1
2017-Apr-18 18:29N 31°24' E 032°24'610.5
2017-Apr-18 17:56N 31°18' E 032°22'410.1
2017-Apr-18 17:30N 31°14' E 032°21'3 5.7
2017-Apr-18 17:00N 31°11' E 032°20'  
Track history (hours):
 
Tides and Currents Weather Stations Pressure Air Temp Water Temp Dewpoint Dewpoint Depression Visibility Wind Speed Wind Dir Waves Ship Positions

Bochem Mumbai

Last reported at 2017-Apr-24 03:03 UTC. Time now 2017-Apr-24 03:36 UTC.
Position N 37°59' E 006°06'.

Length 171 m; draft 10.8 m.

Type: Ship (hazmat cat A). MMSI: 477932400.

Date/timePositionNaut miles runAvg speedWind from/ knotsBaromVisibWave heightAir tempDewpointWater temp
2017-Apr-24 03:03N 37°59' E 006°06'112.3
2017-Apr-24 02:57N 37°59' E 006°07'2312.3
2017-Apr-24 01:05N 38°01' E 006°37'112.5
2017-Apr-24 01:00N 38°01' E 006°38'612.6
2017-Apr-24 00:30N 38°01' E 006°46'612.7
2017-Apr-24 00:00N 38°02' E 006°54'612.7
2017-Apr-23 23:30N 38°01' E 007°02'712.7
2017-Apr-23 22:59N 38°01' E 007°10'612.7
2017-Apr-23 22:30N 38°01' E 007°18'4012.7
2017-Apr-23 19:21N 38°02' E 008°09'412.4
2017-Apr-23 18:59N 38°02' E 008°15'812.5
2017-Apr-23 18:21N 38°03' E 008°24'2412.5
2017-Apr-23 16:27N 38°05' E 008°55'612.3
2017-Apr-23 15:59N 38°05' E 009°02'612.1
2017-Apr-23 15:30N 38°05' E 009°09'1212.0
2017-Apr-23 14:32N 38°05' E 009°24'711.9
2017-Apr-23 13:55N 38°05' E 009°33'511.7
2017-Apr-23 13:27N 38°05' E 009°40'22211.7
2017-Apr-22 18:29N 36°40' E 013°59'611.4
2017-Apr-22 18:00N 36°36' E 014°04'611.2
2017-Apr-22 17:30N 36°33' E 014°10'611.4
2017-Apr-22 16:59N 36°29' E 014°15'511.3
2017-Apr-22 16:30N 36°25' E 014°20'611.3
2017-Apr-22 16:00N 36°21' E 014°25'611.7
2017-Apr-22 15:30N 36°17' E 014°30'611.6
2017-Apr-22 15:00N 36°13' E 014°35'1311.3
2017-Apr-22 13:49N 36°03' E 014°46'410.8
2017-Apr-22 13:29N 35°60' E 014°48'4 7.4
2017-Apr-22 13:00N 35°56' E 014°50'0 0.1
2017-Apr-22 12:08N 35°56' E 014°50'0 0.0
2017-Apr-22 11:44N 35°56' E 014°50'0 0.0
2017-Apr-22 10:26N 35°56' E 014°50'0 0.0
2017-Apr-22 09:56N 35°56' E 014°50'0 0.0
2017-Apr-22 09:23N 35°56' E 014°50'0 0.0
2017-Apr-22 08:56N 35°56' E 014°50'0 0.0
2017-Apr-22 08:26N 35°56' E 014°50'0 0.0
2017-Apr-22 07:59N 35°56' E 014°50'0 0.0
2017-Apr-22 07:08N 35°56' E 014°50'0 0.0
2017-Apr-22 06:50N 35°56' E 014°50'0 0.0
2017-Apr-22 06:29N 35°56' E 014°50'0 0.0
2017-Apr-22 05:56N 35°56' E 014°50'0 0.0
2017-Apr-22 05:20N 35°56' E 014°50'0 0.0
2017-Apr-22 04:59N 35°56' E 014°50'0 0.0
2017-Apr-22 04:26N 35°56' E 014°50'0 0.0
2017-Apr-22 03:59N 35°56' E 014°50'0 0.0
2017-Apr-22 03:29N 35°56' E 014°50'0 0.2
2017-Apr-22 02:59N 35°56' E 014°50'0 0.1
2017-Apr-22 02:29N 35°56' E 014°50'0 0.0
2017-Apr-22 01:14N 35°57' E 014°50'1 4.9
2017-Apr-22 01:00N 35°57' E 014°48'1 1.9
2017-Apr-22 00:30N 35°57' E 014°48'3 5.1
2017-Apr-22 00:00N 35°57' E 014°51'5 9.4
2017-Apr-21 23:30N 35°56' E 014°57'  
2017-Apr-18 18:43N 31°26' E 032°24'311.1
2017-Apr-18 18:29N 31°24' E 032°24'610.5
2017-Apr-18 17:56N 31°18' E 032°22'410.1
2017-Apr-18 17:30N 31°14' E 032°21'3 5.7
2017-Apr-18 17:00N 31°11' E 032°20'  

Dump ship's entire track history